Time;durP1;ratioP1;P1;durP2;ratioP2;P2;SDS_P1;SDS_P2;PMS_P1;PMS_P2;Temp;Humidity;BMP_temperature;BMP_pressure;BME280_temperature;BME280_humidity;BME280_pressure;Samples;Min_cycle;Max_cycle;Signal;HPM_P1;HPM_P2
2023/10/19 00:01:15;;;;;;;23.77;21.23;;;;;;;;;;5058322;28;20032;-72
2023/10/19 00:03:42;;;;;;;22.50;20.08;;;;;;;;;;5061810;28;20067;-73
2023/10/19 00:06:10;;;;;;;32.47;24.38;;;;;;;;;;5059045;28;20032;-73
2023/10/19 00:08:42;;;;;;;27.80;24.83;;;;;;;;;;5058538;28;20036;-74
2023/10/19 00:11:09;;;;;;;24.60;21.55;;;;;;;;;;5062325;28;20024;-74
2023/10/19 00:13:38;;;;;;;28.08;24.60;;;;;;;;;;5056900;28;20049;-72
2023/10/19 00:16:12;;;;;;;24.95;22.30;;;;;;;;;;5058903;28;20047;-74
2023/10/19 00:18:42;;;;;;;28.92;24.52;;;;;;;;;;5056477;28;20434;-74
2023/10/19 00:21:19;;;;;;;24.77;22.20;;;;;;;;;;5062265;28;20082;-74
2023/10/19 00:23:47;;;;;;;29.70;24.45;;;;;;;;;;5055662;28;20054;-72
2023/10/19 00:26:25;;;;;;;32.53;25.55;;;;;;;;;;5038795;28;20029;-73
2023/10/19 00:28:55;;;;;;;31.65;26.58;;;;;;;;;;5059016;28;20055;-71
2023/10/19 00:31:22;;;;;;;26.83;23.35;;;;;;;;;;5043255;28;20124;-71
2023/10/19 00:33:51;;;;;;;35.88;27.23;;;;;;;;;;5038262;28;20058;-72
2023/10/19 00:36:20;;;;;;;26.83;23.98;;;;;;;;;;5058165;28;20664;-72
2023/10/19 00:41:29;;;;;;;31.85;26.27;;;;;;;;;;5043349;28;20036;-74
2023/10/19 00:44:02;;;;;;;29.65;26.20;;;;;;;;;;5058235;28;20098;-74
2023/10/19 00:46:50;;;;;;;29.05;25.83;;;;;;;;;;5042401;28;20131;-72
2023/10/19 00:49:16;;;;;;;31.25;26.35;;;;;;;;;;5056234;28;20047;-71
2023/10/19 00:51:55;;;;;;;36.85;28.70;;;;;;;;;;5054275;28;20051;-73
2023/10/19 00:54:42;;;;;;;36.05;29.30;;;;;;;;;;5052690;28;20032;-71
2023/10/19 00:57:11;;;;;;;40.42;31.00;;;;;;;;;;5059506;28;20034;-73
2023/10/19 00:59:48;;;;;;;;;;;;;;;;;;5040784;28;20028;-74
2023/10/19 01:02:28;;;;;;;32.15;25.38;;;;;;;;;;5058202;28;20054;-71
2023/10/19 01:04:56;;;;;;;32.75;26.15;;;;;;;;;;5051358;28;20406;-72
2023/10/19 01:09:59;;;;;;;37.15;29.17;;;;;;;;;;5054057;28;20494;-72
2023/10/19 01:12:27;;;;;;;38.63;29.55;;;;;;;;;;5054225;28;20167;-73
2023/10/19 01:15:13;;;;;;;33.75;27.88;;;;;;;;;;5043143;28;20055;-73
2023/10/19 01:17:43;;;;;;;30.48;24.33;;;;;;;;;;5051651;28;20123;-72
2023/10/19 01:23:07;;;;;;;27.60;23.50;;;;;;;;;;5042983;28;20426;-73
2023/10/19 01:28:16;;;;;;;29.65;25.27;;;;;;;;;;5054599;28;20104;-73
2023/10/19 01:30:44;;;;;;;;;;;;;;;;;;5059274;28;20098;-73
2023/10/19 01:33:15;;;;;;;29.88;25.13;;;;;;;;;;5051678;28;19931;-75
2023/10/19 01:38:33;;;;;;;38.17;25.77;;;;;;;;;;5060707;28;20531;-73
2023/10/19 01:41:00;;;;;;;36.47;28.05;;;;;;;;;;5040335;28;20591;-73
2023/10/19 01:43:31;;;;;;;36.78;29.45;;;;;;;;;;5037170;28;20036;-74
2023/10/19 01:45:58;;;;;;;46.85;26.23;;;;;;;;;;5053003;28;20044;-72
2023/10/19 01:48:37;;;;;;;33.30;28.30;;;;;;;;;;5043112;28;20024;-74
2023/10/19 01:51:05;;;;;;;95.18;28.73;;;;;;;;;;5060758;28;20108;-73
2023/10/19 01:53:32;;;;;;;39.85;25.90;;;;;;;;;;5048682;28;20096;-72
2023/10/19 01:55:58;;;;;;;24.73;20.80;;;;;;;;;;5057088;28;20039;-73
2023/10/19 01:58:25;;;;;;;36.10;26.92;;;;;;;;;;5043185;28;20028;-72
2023/10/19 02:00:59;;;;;;;29.52;24.15;;;;;;;;;;5060461;28;20032;-73
2023/10/19 02:03:28;;;;;;;35.00;25.00;;;;;;;;;;5039223;28;20349;-72
2023/10/19 02:06:00;;;;;;;40.03;28.77;;;;;;;;;;5040742;28;20094;-74
2023/10/19 02:08:26;;;;;;;37.85;29.23;;;;;;;;;;5045322;28;20441;-74
2023/10/19 02:10:53;;;;;;;40.90;30.83;;;;;;;;;;5069484;28;20047;-72
2023/10/19 02:13:19;;;;;;;48.85;33.85;;;;;;;;;;5038583;28;20052;-73
2023/10/19 02:15:45;;;;;;;42.42;30.52;;;;;;;;;;5050567;28;20100;-73
2023/10/19 02:18:12;;;;;;;45.80;29.50;;;;;;;;;;5058370;28;20111;-76
2023/10/19 02:20:41;;;;;;;46.25;30.20;;;;;;;;;;5061310;28;20040;-73
2023/10/19 02:23:09;;;;;;;44.88;32.22;;;;;;;;;;5045701;28;20416;-74
2023/10/19 02:25:38;;;;;;;48.03;32.78;;;;;;;;;;5060312;28;20619;-74
2023/10/19 02:28:06;;;;;;;48.23;30.93;;;;;;;;;;5055169;28;20039;-74
2023/10/19 02:30:33;;;;;;;41.13;30.60;;;;;;;;;;5054649;28;20036;-71
2023/10/19 02:33:00;;;;;;;42.47;31.88;;;;;;;;;;5052990;28;20518;-73
2023/10/19 02:35:37;;;;;;;36.72;28.55;;;;;;;;;;5061279;28;20032;-75
2023/10/19 02:38:06;;;;;;;44.10;29.73;;;;;;;;;;5046749;28;20048;-72
2023/10/19 02:40:32;;;;;;;41.67;30.00;;;;;;;;;;5042683;28;20037;-73
2023/10/19 02:43:02;;;;;;;41.50;30.23;;;;;;;;;;5046093;28;20050;-73
2023/10/19 02:45:30;;;;;;;36.78;30.02;;;;;;;;;;5069524;28;20024;-74
2023/10/19 02:47:58;;;;;;;38.95;30.02;;;;;;;;;;5047680;28;20083;-74
2023/10/19 02:50:26;;;;;;;38.92;29.92;;;;;;;;;;5051095;28;20803;-73
2023/10/19 02:53:01;;;;;;;39.03;30.23;;;;;;;;;;5049945;28;20509;-74
2023/10/19 02:55:27;;;;;;;38.58;29.95;;;;;;;;;;5071540;28;20032;-72
2023/10/19 02:57:53;;;;;;;38.83;28.60;;;;;;;;;;5061080;28;20028;-74
2023/10/19 03:00:20;;;;;;;37.33;29.17;;;;;;;;;;5030851;28;20040;-72
2023/10/19 03:02:51;;;;;;;36.58;28.35;;;;;;;;;;5029166;28;20033;-73
2023/10/19 03:05:20;;;;;;;30.75;27.20;;;;;;;;;;5047302;28;20091;-73
2023/10/19 03:07:48;;;;;;;30.38;26.15;;;;;;;;;;5039978;28;20055;-73
2023/10/19 03:10:24;;;;;;;32.30;27.60;;;;;;;;;;5040731;28;20079;-74
2023/10/19 03:12:53;;;;;;;33.00;28.20;;;;;;;;;;5048148;28;20126;-73
2023/10/19 03:15:21;;;;;;;33.90;28.73;;;;;;;;;;5048154;28;20044;-74
2023/10/19 03:17:49;;;;;;;30.08;25.73;;;;;;;;;;5047772;28;20536;-74
2023/10/19 03:20:17;;;;;;;38.33;28.60;;;;;;;;;;5062512;28;20043;-72
2023/10/19 03:22:46;;;;;;;33.72;27.15;;;;;;;;;;5040745;28;20035;-73
2023/10/19 03:28:05;;;;;;;34.40;28.15;;;;;;;;;;5047356;28;20054;-73
2023/10/19 03:30:42;;;;;;;33.65;27.25;;;;;;;;;;5036668;28;20037;-73
2023/10/19 03:33:21;;;;;;;34.10;26.23;;;;;;;;;;5056318;28;20066;-75
2023/10/19 03:35:48;;;;;;;35.15;28.20;;;;;;;;;;5046986;28;20037;-74
2023/10/19 03:38:17;;;;;;;38.10;27.65;;;;;;;;;;5048310;28;20032;-73
2023/10/19 03:40:51;;;;;;;41.42;29.63;;;;;;;;;;5036003;28;20037;-73
2023/10/19 03:43:23;;;;;;;35.15;27.58;;;;;;;;;;5056070;28;20032;-74
2023/10/19 03:45:52;;;;;;;36.38;27.25;;;;;;;;;;5054991;28;20028;-75
2023/10/19 03:48:34;;;;;;;38.85;28.15;;;;;;;;;;5059141;28;20558;-73
2023/10/19 03:51:02;;;;;;;35.60;28.45;;;;;;;;;;5034775;28;20035;-73
2023/10/19 03:53:30;;;;;;;37.42;27.90;;;;;;;;;;5045279;28;20045;-74
2023/10/19 03:55:56;;;;;;;39.97;28.65;;;;;;;;;;5014639;28;20039;-73
2023/10/19 03:58:22;;;;;;;33.60;26.55;;;;;;;;;;5056107;28;20028;-72
2023/10/19 04:00:51;;;;;;;30.48;26.25;;;;;;;;;;5048690;28;20144;-72
2023/10/19 04:03:24;;;;;;;34.55;28.23;;;;;;;;;;5046100;28;20029;-73
2023/10/19 04:05:50;;;;;;;38.30;28.08;;;;;;;;;;5053634;28;20044;-72
2023/10/19 04:08:20;;;;;;;36.63;27.83;;;;;;;;;;5049641;28;20040;-73
2023/10/19 04:13:31;;;;;;;40.70;27.40;;;;;;;;;;5026865;28;20036;-72
2023/10/19 04:15:57;;;;;;;60.58;28.67;;;;;;;;;;5057785;28;20517;-73
2023/10/19 04:18:25;;;;;;;253.10;30.77;;;;;;;;;;5046959;28;20071;-73
2023/10/19 04:23:21;;;;;;;42.70;26.90;;;;;;;;;;5047301;28;20025;-74
2023/10/19 04:25:49;;;;;;;35.65;25.55;;;;;;;;;;5042878;28;20152;-75
2023/10/19 04:28:15;;;;;;;52.25;42.15;;;;;;;;;;5047713;28;20032;-73
2023/10/19 04:30:41;;;;;;;41.80;27.35;;;;;;;;;;5052854;28;20514;-73
2023/10/19 04:33:10;;;;;;;39.25;27.73;;;;;;;;;;5029986;28;20098;-73
2023/10/19 04:35:41;;;;;;;35.10;28.30;;;;;;;;;;5048711;28;20044;-73
2023/10/19 04:38:06;;;;;;;33.03;27.30;;;;;;;;;;5044746;28;20071;-73
2023/10/19 04:40:32;;;;;;;33.33;23.15;;;;;;;;;;5038033;28;20056;-73
2023/10/19 04:42:58;;;;;;;30.80;24.13;;;;;;;;;;5051890;28;20079;-72
2023/10/19 04:45:24;;;;;;;36.92;24.30;;;;;;;;;;5050630;28;20036;-73
2023/10/19 04:47:52;;;;;;;39.45;28.67;;;;;;;;;;5054252;28;20033;-73
2023/10/19 04:50:18;;;;;;;36.65;27.33;;;;;;;;;;5051082;28;20056;-73
2023/10/19 04:52:44;;;;;;;32.92;26.70;;;;;;;;;;5036733;28;20095;-73
2023/10/19 04:55:09;;;;;;;39.63;29.55;;;;;;;;;;5050069;28;20418;-73
2023/10/19 04:57:35;;;;;;;42.35;29.30;;;;;;;;;;5049955;28;20032;-73
2023/10/19 05:00:01;;;;;;;35.65;28.27;;;;;;;;;;5050266;28;20473;-73
2023/10/19 05:02:29;;;;;;;39.50;30.60;;;;;;;;;;5055354;28;20033;-73
2023/10/19 05:04:55;;;;;;;42.50;30.70;;;;;;;;;;5049063;28;20056;-73
2023/10/19 05:07:20;;;;;;;34.28;25.80;;;;;;;;;;5056150;28;20071;-73
2023/10/19 05:09:47;;;;;;;33.10;26.60;;;;;;;;;;5050786;28;20037;-73
2023/10/19 05:12:14;;;;;;;35.08;24.98;;;;;;;;;;5053066;28;20034;-73
2023/10/19 05:14:41;;;;;;;33.92;25.55;;;;;;;;;;5052121;28;20048;-73
2023/10/19 05:17:08;;;;;;;35.58;28.80;;;;;;;;;;5049132;28;20561;-73
2023/10/19 05:19:38;;;;;;;34.47;27.42;;;;;;;;;;5056078;28;20438;-73
2023/10/19 05:22:05;;;;;;;;;;;;;;;;;;5053423;28;20048;-73
2023/10/19 05:24:32;;;;;;;28.98;23.65;;;;;;;;;;5058026;28;19912;-73
2023/10/19 05:26:58;;;;;;;33.97;27.58;;;;;;;;;;5052106;28;20029;-73
2023/10/19 05:29:23;;;;;;;36.05;29.00;;;;;;;;;;5050308;28;20036;-73
2023/10/19 05:31:54;;;;;;;34.47;28.33;;;;;;;;;;5058680;28;20040;-72
2023/10/19 05:34:20;;;;;;;37.20;28.02;;;;;;;;;;5050910;28;20059;-74
2023/10/19 05:36:48;;;;;;;39.28;30.42;;;;;;;;;;5055357;28;20051;-73
2023/10/19 05:39:15;;;;;;;38.40;30.42;;;;;;;;;;5051610;28;20075;-73
2023/10/19 05:41:41;;;;;;;35.97;29.13;;;;;;;;;;5058246;28;20037;-73
2023/10/19 05:44:06;;;;;;;33.08;25.92;;;;;;;;;;5057863;28;20090;-73
2023/10/19 05:46:32;;;;;;;35.75;27.45;;;;;;;;;;5059887;28;20034;-74
2023/10/19 05:48:58;;;;;;;35.33;29.65;;;;;;;;;;5045233;28;20632;-73
2023/10/19 05:51:24;;;;;;;83.65;61.05;;;;;;;;;;5058701;28;20390;-73
2023/10/19 05:54:01;;;;;;;75.10;55.67;;;;;;;;;;5053124;28;20037;-74
2023/10/19 05:56:27;;;;;;;42.10;28.30;;;;;;;;;;5063402;28;20036;-73
2023/10/19 05:58:53;;;;;;;36.53;28.73;;;;;;;;;;5059720;28;20901;-73
2023/10/19 06:01:19;;;;;;;41.60;30.00;;;;;;;;;;5065156;28;20556;-73
2023/10/19 06:03:45;;;;;;;46.85;39.72;;;;;;;;;;5063624;28;20036;-73
2023/10/19 06:06:11;;;;;;;33.55;29.67;;;;;;;;;;5059747;28;20043;-74
2023/10/19 06:08:36;;;;;;;44.08;36.25;;;;;;;;;;5062613;28;20116;-73
2023/10/19 06:11:02;;;;;;;39.08;28.05;;;;;;;;;;5057244;28;20033;-73
2023/10/19 06:13:29;;;;;;;33.78;28.50;;;;;;;;;;5057446;28;20037;-74
2023/10/19 06:15:55;;;;;;;27.85;23.33;;;;;;;;;;5059415;28;20558;-72
2023/10/19 06:18:20;;;;;;;32.95;23.98;;;;;;;;;;5045348;28;20040;-72
2023/10/19 06:20:47;;;;;;;29.55;23.65;;;;;;;;;;5046427;28;20040;-72
2023/10/19 06:23:13;;;;;;;66.50;48.63;;;;;;;;;;5061772;28;20036;-72
2023/10/19 06:25:39;;;;;;;68.32;50.03;;;;;;;;;;5057413;28;20127;-72
2023/10/19 06:28:07;;;;;;;62.10;44.95;;;;;;;;;;5062085;28;20140;-72
2023/10/19 06:30:32;;;;;;;61.45;45.45;;;;;;;;;;5060151;28;20123;-72
2023/10/19 06:33:02;;;;;;;70.93;55.03;;;;;;;;;;5057909;28;20116;-72
2023/10/19 06:35:32;;;;;;;35.72;30.45;;;;;;;;;;5060611;28;20032;-72
2023/10/19 06:37:59;;;;;;;41.63;34.10;;;;;;;;;;5058713;28;20037;-72
2023/10/19 06:40:28;;;;;;;40.25;30.23;;;;;;;;;;5062808;28;20666;-72
2023/10/19 06:42:58;;;;;;;38.63;29.95;;;;;;;;;;5062105;28;20037;-72
2023/10/19 06:45:29;;;;;;;44.22;34.20;;;;;;;;;;5042227;28;20040;-72
2023/10/19 06:47:55;;;;;;;51.47;36.45;;;;;;;;;;5060382;28;20087;-72
2023/10/19 06:50:22;;;;;;;39.30;31.45;;;;;;;;;;5061479;28;20477;-72
2023/10/19 06:52:49;;;;;;;31.25;25.45;;;;;;;;;;5056335;28;20033;-72
2023/10/19 06:55:18;;;;;;;30.80;26.15;;;;;;;;;;5062969;28;20083;-73
2023/10/19 06:57:44;;;;;;;28.20;21.88;;;;;;;;;;5057182;28;20512;-75
2023/10/19 07:00:15;;;;;;;22.67;20.25;;;;;;;;;;5060886;28;20064;-73
2023/10/19 07:02:45;;;;;;;27.63;23.00;;;;;;;;;;5053589;28;20490;-73
2023/10/19 07:05:13;;;;;;;32.55;27.00;;;;;;;;;;5059027;28;21263;-73
2023/10/19 07:07:43;;;;;;;32.13;26.65;;;;;;;;;;5041692;28;20028;-72
2023/10/19 07:10:09;;;;;;;23.75;21.20;;;;;;;;;;5056622;28;20039;-72
2023/10/19 07:12:39;;;;;;;28.58;21.73;;;;;;;;;;5041345;28;20039;-72
2023/10/19 07:15:07;;;;;;;27.00;23.33;;;;;;;;;;5058787;28;20524;-73
2023/10/19 07:17:34;;;;;;;24.10;21.67;;;;;;;;;;5058929;28;20032;-72
2023/10/19 07:20:00;;;;;;;22.13;19.83;;;;;;;;;;5030498;28;20040;-72
2023/10/19 07:22:25;;;;;;;21.23;19.02;;;;;;;;;;5045329;28;20051;-73
2023/10/19 07:24:52;;;;;;;21.60;19.30;;;;;;;;;;5060044;28;20071;-73
2023/10/19 07:27:20;;;;;;;21.85;19.83;;;;;;;;;;5055564;28;20020;-73
2023/10/19 07:29:47;;;;;;;21.40;19.38;;;;;;;;;;5058124;28;20593;-73
2023/10/19 07:32:13;;;;;;;22.83;20.40;;;;;;;;;;5047701;28;20061;-73
2023/10/19 07:34:39;;;;;;;22.75;20.45;;;;;;;;;;5064789;28;20442;-73
2023/10/19 07:37:07;;;;;;;21.67;19.75;;;;;;;;;;5064329;28;20167;-73
2023/10/19 07:39:33;;;;;;;22.75;20.48;;;;;;;;;;5056384;28;20024;-72
2023/10/19 07:41:59;;;;;;;307.15;25.85;;;;;;;;;;5045672;28;20058;-72
2023/10/19 07:44:25;;;;;;;265.77;25.75;;;;;;;;;;5062767;28;20032;-73
2023/10/19 07:46:52;;;;;;;29.15;26.27;;;;;;;;;;5062463;28;20032;-73
2023/10/19 07:49:17;;;;;;;27.38;20.80;;;;;;;;;;5061542;28;20060;-73
2023/10/19 07:51:49;;;;;;;22.40;20.17;;;;;;;;;;5044643;28;20210;-74
2023/10/19 07:54:15;;;;;;;22.15;20.05;;;;;;;;;;5057212;28;20025;-74
2023/10/19 07:56:41;;;;;;;22.65;20.65;;;;;;;;;;5058195;28;20392;-73
2023/10/19 07:59:07;;;;;;;25.27;21.13;;;;;;;;;;5058686;28;20040;-73
2023/10/19 08:01:33;;;;;;;21.88;19.98;;;;;;;;;;5041423;28;20043;-73
2023/10/19 08:03:59;;;;;;;22.65;20.48;;;;;;;;;;5058170;28;20028;-73
2023/10/19 08:06:24;;;;;;;23.10;19.83;;;;;;;;;;5044270;28;20028;-73
2023/10/19 08:08:50;;;;;;;21.88;19.83;;;;;;;;;;5061080;28;20056;-73
2023/10/19 08:11:16;;;;;;;22.98;21.00;;;;;;;;;;5058453;28;20032;-73
2023/10/19 08:13:42;;;;;;;21.15;19.10;;;;;;;;;;5055452;28;20044;-73
2023/10/19 08:16:08;;;;;;;21.00;19.00;;;;;;;;;;5055294;28;20044;-75
2023/10/19 08:18:35;;;;;;;26.90;24.15;;;;;;;;;;5051929;28;20495;-73
2023/10/19 08:21:01;;;;;;;20.25;18.55;;;;;;;;;;5055633;28;20398;-74
2023/10/19 08:23:27;;;;;;;20.33;18.42;;;;;;;;;;5059913;28;20078;-74
2023/10/19 08:25:54;;;;;;;19.35;17.60;;;;;;;;;;5054055;28;20061;-74
2023/10/19 08:28:22;;;;;;;19.50;17.80;;;;;;;;;;5058175;28;20135;-75
2023/10/19 08:30:57;;;;;;;20.67;18.80;;;;;;;;;;5057897;28;20040;-74
2023/10/19 08:33:25;;;;;;;19.63;17.60;;;;;;;;;;5059005;28;20104;-72
2023/10/19 08:35:54;;;;;;;18.95;17.35;;;;;;;;;;5060987;28;20032;-73
2023/10/19 08:38:20;;;;;;;19.02;17.30;;;;;;;;;;5053393;28;20033;-72
2023/10/19 08:40:48;;;;;;;18.08;16.52;;;;;;;;;;5038697;28;20036;-73
2023/10/19 08:43:15;;;;;;;21.50;19.63;;;;;;;;;;5043849;28;20060;-72
2023/10/19 08:45:43;;;;;;;20.48;18.58;;;;;;;;;;5046079;28;20040;-73
2023/10/19 08:48:09;;;;;;;19.15;16.92;;;;;;;;;;5058157;28;20059;-73
2023/10/19 08:50:34;;;;;;;18.35;16.73;;;;;;;;;;5061807;28;20131;-73
2023/10/19 08:53:02;;;;;;;18.08;16.58;;;;;;;;;;5031114;28;20611;-74
2023/10/19 08:55:28;;;;;;;18.25;16.63;;;;;;;;;;5056747;28;20032;-72
2023/10/19 08:57:58;;;;;;;17.55;16.13;;;;;;;;;;5036724;28;20460;-75
2023/10/19 09:00:24;;;;;;;16.98;15.68;;;;;;;;;;5050437;28;20170;-73
2023/10/19 09:02:56;;;;;;;19.42;17.52;;;;;;;;;;5059336;28;20454;-74
2023/10/19 09:05:22;;;;;;;19.50;17.73;;;;;;;;;;5048133;28;20555;-73
2023/10/19 09:07:59;;;;;;;18.23;16.63;;;;;;;;;;5039354;28;20079;-72
2023/10/19 09:10:27;;;;;;;16.48;15.18;;;;;;;;;;5043261;28;20115;-73
2023/10/19 09:13:07;;;;;;;18.35;16.45;;;;;;;;;;5057853;28;20044;-72
2023/10/19 09:15:33;;;;;;;17.70;16.15;;;;;;;;;;5052697;28;20191;-72
2023/10/19 09:18:15;;;;;;;17.85;16.40;;;;;;;;;;5049742;28;20093;-73
2023/10/19 09:20:42;;;;;;;17.70;16.20;;;;;;;;;;5056978;28;20147;-72
2023/10/19 09:23:08;;;;;;;18.60;17.15;;;;;;;;;;5051484;28;20024;-73
2023/10/19 09:25:35;;;;;;;19.77;18.08;;;;;;;;;;5064357;28;20036;-73
2023/10/19 09:28:02;;;;;;;18.05;16.52;;;;;;;;;;5057504;28;20032;-73
2023/10/19 09:30:30;;;;;;;18.67;17.00;;;;;;;;;;5054230;28;20516;-74
2023/10/19 09:32:57;;;;;;;18.60;16.90;;;;;;;;;;5062395;28;20048;-73
2023/10/19 09:35:27;;;;;;;18.92;17.15;;;;;;;;;;5056753;28;20435;-73
2023/10/19 09:37:54;;;;;;;19.20;17.50;;;;;;;;;;5044268;28;20130;-73
2023/10/19 09:40:21;;;;;;;20.33;18.50;;;;;;;;;;5040906;28;20449;-73
2023/10/19 09:42:53;;;;;;;18.23;16.63;;;;;;;;;;5066511;28;20036;-73
2023/10/19 09:45:19;;;;;;;18.17;16.67;;;;;;;;;;5060909;28;20041;-73
2023/10/19 09:47:50;;;;;;;17.63;16.13;;;;;;;;;;5070245;28;20041;-74
2023/10/19 09:50:16;;;;;;;17.60;16.10;;;;;;;;;;5064009;28;20040;-74
2023/10/19 09:52:42;;;;;;;19.42;17.77;;;;;;;;;;5064023;28;20040;-74
2023/10/19 09:55:33;;;;;;;19.30;17.60;;;;;;;;;;5062706;28;20044;-73
2023/10/19 09:58:07;;;;;;;20.45;18.30;;;;;;;;;;5063471;28;20485;-76
2023/10/19 10:00:41;;;;;;;19.08;17.30;;;;;;;;;;5033894;28;20361;-75
2023/10/19 10:03:43;;;;;;;18.58;16.90;;;;;;;;;;5020174;28;20066;-74
2023/10/19 10:06:18;;;;;;;17.67;16.25;;;;;;;;;;5030066;28;20040;-75
2023/10/19 10:08:48;;;;;;;18.33;16.77;;;;;;;;;;5062534;28;20745;-75
2023/10/19 10:11:20;;;;;;;18.35;16.63;;;;;;;;;;5046355;28;20440;-72
2023/10/19 10:13:50;;;;;;;17.45;15.75;;;;;;;;;;5059739;28;20049;-73
2023/10/19 10:16:17;;;;;;;17.42;16.00;;;;;;;;;;5062656;28;20400;-74
2023/10/19 10:18:48;;;;;;;16.95;15.45;;;;;;;;;;5040825;28;20063;-73
2023/10/19 10:21:20;;;;;;;16.85;15.55;;;;;;;;;;5058299;28;20058;-76
2023/10/19 10:23:49;;;;;;;16.00;14.60;;;;;;;;;;5057205;28;20516;-74
2023/10/19 10:26:17;;;;;;;16.05;14.85;;;;;;;;;;5060314;28;20048;-74
2023/10/19 10:28:48;;;;;;;16.45;14.52;;;;;;;;;;5059497;28;20040;-74
2023/10/19 10:31:20;;;;;;;16.42;14.93;;;;;;;;;;5058389;28;20107;-76
2023/10/19 10:33:57;;;;;;;16.90;15.48;;;;;;;;;;5036905;28;20281;-76
2023/10/19 10:36:23;;;;;;;16.30;15.00;;;;;;;;;;5052575;28;20048;-75
2023/10/19 10:38:50;;;;;;;16.73;15.35;;;;;;;;;;5044051;28;20043;-74
2023/10/19 10:41:29;;;;;;;16.60;15.10;;;;;;;;;;5043023;28;20549;-74
2023/10/19 10:43:56;;;;;;;16.20;14.88;;;;;;;;;;5054489;28;20171;-74
2023/10/19 10:46:29;;;;;;;15.57;14.27;;;;;;;;;;5040493;28;20079;-74
2023/10/19 10:48:55;;;;;;;16.17;14.80;;;;;;;;;;5039446;28;20040;-74
2023/10/19 10:51:25;;;;;;;14.48;13.27;;;;;;;;;;5045647;28;20106;-74
2023/10/19 10:53:53;;;;;;;15.18;13.98;;;;;;;;;;5055683;28;20619;-74
2023/10/19 10:56:21;;;;;;;16.53;14.73;;;;;;;;;;5062947;28;20040;-75
2023/10/19 10:58:47;;;;;;;15.52;13.98;;;;;;;;;;5051779;28;20330;-74
2023/10/19 11:01:14;;;;;;;15.45;14.05;;;;;;;;;;5063858;28;20051;-74
2023/10/19 11:03:42;;;;;;;16.13;14.48;;;;;;;;;;5062515;28;21518;-75
2023/10/19 11:06:11;;;;;;;17.08;15.30;;;;;;;;;;5047380;28;20024;-74
2023/10/19 11:08:38;;;;;;;16.63;15.25;;;;;;;;;;5056082;28;20041;-74
2023/10/19 11:11:10;;;;;;;16.20;14.63;;;;;;;;;;5052908;28;20028;-74
2023/10/19 11:13:38;;;;;;;17.23;15.52;;;;;;;;;;5058973;28;20401;-74
2023/10/19 11:16:05;;;;;;;17.58;16.17;;;;;;;;;;5062002;28;20032;-71
2023/10/19 11:18:49;;;;;;;16.65;15.15;;;;;;;;;;5041516;28;20047;-75
2023/10/19 11:21:18;;;;;;;15.85;14.65;;;;;;;;;;5037122;28;20410;-74
2023/10/19 11:23:46;;;;;;;16.65;15.30;;;;;;;;;;5057422;28;20438;-74
2023/10/19 11:26:15;;;;;;;16.48;15.07;;;;;;;;;;5056042;28;20060;-74
2023/10/19 11:28:47;;;;;;;17.33;15.93;;;;;;;;;;5041147;28;20040;-73
2023/10/19 11:31:22;;;;;;;16.65;15.35;;;;;;;;;;5040609;28;20048;-74
2023/10/19 11:33:50;;;;;;;17.40;16.10;;;;;;;;;;5057408;28;20036;-74
2023/10/19 11:36:17;;;;;;;19.20;17.45;;;;;;;;;;5041051;28;20040;-74
2023/10/19 11:38:45;;;;;;;20.73;18.98;;;;;;;;;;5064235;28;20036;-73
2023/10/19 11:41:12;;;;;;;20.05;18.25;;;;;;;;;;5057495;28;20572;-73
2023/10/19 11:43:38;;;;;;;19.88;18.23;;;;;;;;;;5061444;28;20107;-73
2023/10/19 11:46:06;;;;;;;19.85;18.15;;;;;;;;;;5066186;28;20131;-73
2023/10/19 11:48:33;;;;;;;19.10;17.10;;;;;;;;;;5064566;28;20538;-73
2023/10/19 11:51:03;;;;;;;20.65;18.77;;;;;;;;;;5064745;28;20040;-72
2023/10/19 11:53:34;;;;;;;19.33;17.50;;;;;;;;;;5042228;28;20120;-73
2023/10/19 11:56:12;;;;;;;20.42;18.75;;;;;;;;;;5058828;28;20043;-74
2023/10/19 11:58:41;;;;;;;21.10;19.13;;;;;;;;;;5054968;28;20040;-74
2023/10/19 12:01:08;;;;;;;22.45;20.23;;;;;;;;;;5055633;28;20036;-73
2023/10/19 12:03:39;;;;;;;20.40;18.55;;;;;;;;;;5054212;28;20024;-73
2023/10/19 12:06:06;;;;;;;22.25;20.05;;;;;;;;;;5054958;28;20108;-72
2023/10/19 12:08:33;;;;;;;20.60;18.88;;;;;;;;;;5059481;28;20120;-73
2023/10/19 12:11:01;;;;;;;20.75;19.05;;;;;;;;;;5057882;28;20055;-73
2023/10/19 12:13:28;;;;;;;21.80;19.75;;;;;;;;;;5057048;28;20158;-73
2023/10/19 12:15:55;;;;;;;23.23;21.08;;;;;;;;;;5052160;28;20025;-73
2023/10/19 12:18:21;;;;;;;22.77;20.67;;;;;;;;;;5042348;28;20516;-72
2023/10/19 12:20:47;;;;;;;23.02;20.77;;;;;;;;;;5053329;28;20047;-72
2023/10/19 12:23:14;;;;;;;21.80;19.70;;;;;;;;;;5056773;28;20025;-72
2023/10/19 12:25:42;;;;;;;22.05;19.85;;;;;;;;;;5043221;28;20055;-72
2023/10/19 12:28:13;;;;;;;22.50;20.58;;;;;;;;;;5042436;28;20032;-72
2023/10/19 12:30:41;;;;;;;50.22;36.35;;;;;;;;;;5045069;28;20103;-72
2023/10/19 12:33:11;;;;;;;23.35;20.55;;;;;;;;;;5045245;28;20036;-73
2023/10/19 12:35:51;;;;;;;22.75;20.45;;;;;;;;;;5063759;28;20067;-72
2023/10/19 12:38:17;;;;;;;22.17;20.13;;;;;;;;;;5060168;28;20040;-71
2023/10/19 12:40:47;;;;;;;22.73;20.13;;;;;;;;;;5065058;28;20119;-74
2023/10/19 12:43:14;;;;;;;24.63;21.92;;;;;;;;;;5064814;28;20032;-73
2023/10/19 12:45:43;;;;;;;21.70;19.67;;;;;;;;;;5057748;28;20040;-73
2023/10/19 12:48:10;;;;;;;25.00;22.15;;;;;;;;;;5047024;28;20031;-74
2023/10/19 12:50:43;;;;;;;30.38;20.15;;;;;;;;;;5051223;28;20124;-72
2023/10/19 12:53:09;;;;;;;25.48;22.90;;;;;;;;;;5048137;28;20120;-74
2023/10/19 12:55:37;;;;;;;23.08;20.75;;;;;;;;;;5048505;28;20101;-73
2023/10/19 12:58:07;;;;;;;23.83;21.58;;;;;;;;;;5045461;28;20115;-74
2023/10/19 13:00:40;;;;;;;22.50;19.98;;;;;;;;;;5043889;28;20036;-72
2023/10/19 13:03:09;;;;;;;20.02;18.13;;;;;;;;;;5067572;28;20028;-74
2023/10/19 13:05:36;;;;;;;22.58;20.38;;;;;;;;;;5065297;28;20040;-74
2023/10/19 13:08:13;;;;;;;25.00;21.30;;;;;;;;;;5048908;28;20028;-74
2023/10/19 13:10:44;;;;;;;22.85;20.38;;;;;;;;;;5045728;28;20052;-73
2023/10/19 13:13:14;;;;;;;23.52;21.13;;;;;;;;;;5031543;28;20151;-72
2023/10/19 13:15:42;;;;;;;22.83;20.60;;;;;;;;;;5041910;28;20119;-72
2023/10/19 13:18:13;;;;;;;22.58;20.58;;;;;;;;;;5048813;28;20033;-72
2023/10/19 13:20:43;;;;;;;21.27;19.42;;;;;;;;;;5047892;28;20061;-72
2023/10/19 13:23:16;;;;;;;21.25;19.10;;;;;;;;;;5047488;28;20068;-71
2023/10/19 13:26:08;;;;;;;21.30;19.30;;;;;;;;;;5052592;28;20036;-71
2023/10/19 13:28:34;;;;;;;23.98;20.33;;;;;;;;;;5044407;28;20032;-72
2023/10/19 13:31:00;;;;;;;22.80;20.73;;;;;;;;;;5046290;28;20028;-72
2023/10/19 13:33:26;;;;;;;22.15;19.95;;;;;;;;;;5047043;28;20056;-73
2023/10/19 13:35:52;;;;;;;21.30;19.25;;;;;;;;;;5043553;28;20087;-73
2023/10/19 13:38:19;;;;;;;20.00;18.15;;;;;;;;;;5045304;28;20032;-73
2023/10/19 13:40:45;;;;;;;20.83;18.75;;;;;;;;;;5049482;28;20032;-72
2023/10/19 13:43:16;;;;;;;19.48;17.88;;;;;;;;;;5052363;28;20035;-72
2023/10/19 13:46:02;;;;;;;18.58;17.08;;;;;;;;;;5048220;28;20091;-72
2023/10/19 13:48:27;;;;;;;21.40;19.25;;;;;;;;;;5054500;28;20047;-72
2023/10/19 13:51:00;;;;;;;20.85;19.05;;;;;;;;;;5044285;28;20025;-72
2023/10/19 13:53:29;;;;;;;19.58;17.67;;;;;;;;;;5047224;28;20112;-72
2023/10/19 13:55:55;;;;;;;19.17;17.35;;;;;;;;;;5040917;28;20033;-73
2023/10/19 13:58:21;;;;;;;20.13;18.42;;;;;;;;;;5051276;28;20044;-72
2023/10/19 14:00:49;;;;;;;18.88;17.25;;;;;;;;;;5053885;28;20107;-71
2023/10/19 14:03:15;;;;;;;18.77;17.08;;;;;;;;;;5061339;28;20050;-72
2023/10/19 14:05:48;;;;;;;19.25;17.55;;;;;;;;;;5063267;28;20401;-72
2023/10/19 14:08:16;;;;;;;19.73;18.13;;;;;;;;;;5056783;28;20090;-72
2023/10/19 14:10:41;;;;;;;20.15;18.35;;;;;;;;;;5053696;28;20047;-71
2023/10/19 14:13:11;;;;;;;18.52;16.77;;;;;;;;;;5054475;28;20037;-72
2023/10/19 14:15:37;;;;;;;19.55;17.83;;;;;;;;;;5050323;28;20485;-72
2023/10/19 14:18:03;;;;;;;19.58;17.90;;;;;;;;;;5060913;28;20142;-72
2023/10/19 14:20:31;;;;;;;18.60;17.10;;;;;;;;;;5033974;28;20106;-72
2023/10/19 14:22:58;;;;;;;19.73;18.02;;;;;;;;;;5041130;28;20048;-72
2023/10/19 14:25:24;;;;;;;21.92;19.88;;;;;;;;;;5044181;28;20076;-72
2023/10/19 14:27:52;;;;;;;19.95;18.25;;;;;;;;;;5053765;28;20067;-72
2023/10/19 14:30:22;;;;;;;59.15;48.72;;;;;;;;;;5029308;28;20529;-71
2023/10/19 14:32:49;;;;;;;22.23;20.35;;;;;;;;;;5053502;28;20160;-72
2023/10/19 14:35:17;;;;;;;20.77;18.90;;;;;;;;;;5050668;28;20029;-73
2023/10/19 14:37:44;;;;;;;20.77;18.92;;;;;;;;;;5056475;28;20102;-72
2023/10/19 14:40:12;;;;;;;49.47;45.05;;;;;;;;;;5051948;28;20036;-72
2023/10/19 14:42:44;;;;;;;21.75;19.05;;;;;;;;;;5045641;28;20123;-72
2023/10/19 14:45:11;;;;;;;20.52;18.60;;;;;;;;;;5048199;28;20025;-71
2023/10/19 14:47:37;;;;;;;20.35;18.35;;;;;;;;;;5052328;28;20039;-72
2023/10/19 14:50:04;;;;;;;19.17;17.45;;;;;;;;;;5055068;28;20067;-72